sensor_id;sensor_type;location;lat;lon;timestamp;temperature;humidity
20560;DHT22;10438;51.454;6.718;2022-10-31T00:02:19;14.90;99.90
20560;DHT22;10438;51.454;6.718;2022-10-31T00:04:45;14.80;99.90
20560;DHT22;10438;51.454;6.718;2022-10-31T00:07:10;14.80;99.90
20560;DHT22;10438;51.454;6.718;2022-10-31T00:09:36;14.80;99.90
20560;DHT22;10438;51.454;6.718;2022-10-31T00:12:01;14.80;99.90
20560;DHT22;10438;51.454;6.718;2022-10-31T00:14:27;14.70;99.90
20560;DHT22;10438;51.454;6.718;2022-10-31T00:16:52;14.70;99.90
20560;DHT22;10438;51.454;6.718;2022-10-31T00:19:17;14.70;99.90
20560;DHT22;10438;51.454;6.718;2022-10-31T00:21:43;14.70;99.90
20560;DHT22;10438;51.454;6.718;2022-10-31T00:24:09;14.60;99.90
20560;DHT22;10438;51.454;6.718;2022-10-31T00:26:35;14.70;99.90
20560;DHT22;10438;51.454;6.718;2022-10-31T00:29:00;14.70;99.90
20560;DHT22;10438;51.454;6.718;2022-10-31T00:31:26;14.70;99.90
20560;DHT22;10438;51.454;6.718;2022-10-31T00:33:52;14.60;99.90
20560;DHT22;10438;51.454;6.718;2022-10-31T00:36:19;14.60;99.90
20560;DHT22;10438;51.454;6.718;2022-10-31T00:38:45;14.60;99.90
20560;DHT22;10438;51.454;6.718;2022-10-31T00:41:12;14.50;99.90
20560;DHT22;10438;51.454;6.718;2022-10-31T00:43:38;14.60;99.90
20560;DHT22;10438;51.454;6.718;2022-10-31T00:46:03;14.60;99.90
20560;DHT22;10438;51.454;6.718;2022-10-31T00:48:29;14.60;99.90
20560;DHT22;10438;51.454;6.718;2022-10-31T00:50:55;14.60;99.90
20560;DHT22;10438;51.454;6.718;2022-10-31T00:53:21;14.60;99.90
20560;DHT22;10438;51.454;6.718;2022-10-31T00:55:47;14.60;99.90
20560;DHT22;10438;51.454;6.718;2022-10-31T00:58:12;14.60;99.90
20560;DHT22;10438;51.454;6.718;2022-10-31T01:00:38;14.60;99.90
20560;DHT22;10438;51.454;6.718;2022-10-31T01:03:03;14.60;99.90
20560;DHT22;10438;51.454;6.718;2022-10-31T01:05:29;14.60;99.90
20560;DHT22;10438;51.454;6.718;2022-10-31T01:07:54;14.60;99.90
20560;DHT22;10438;51.454;6.718;2022-10-31T01:10:20;14.60;99.90
20560;DHT22;10438;51.454;6.718;2022-10-31T01:12:47;14.60;99.90
20560;DHT22;10438;51.454;6.718;2022-10-31T01:15:16;14.60;99.90
20560;DHT22;10438;51.454;6.718;2022-10-31T01:17:42;14.60;99.90
20560;DHT22;10438;51.454;6.718;2022-10-31T01:20:09;14.70;99.90
20560;DHT22;10438;51.454;6.718;2022-10-31T01:22:35;14.60;99.90
20560;DHT22;10438;51.454;6.718;2022-10-31T01:25:01;14.60;99.90
20560;DHT22;10438;51.454;6.718;2022-10-31T01:27:27;14.60;99.90
20560;DHT22;10438;51.454;6.718;2022-10-31T01:29:52;14.50;99.90
20560;DHT22;10438;51.454;6.718;2022-10-31T01:32:18;14.50;99.90
20560;DHT22;10438;51.454;6.718;2022-10-31T01:34:43;14.40;99.90
20560;DHT22;10438;51.454;6.718;2022-10-31T01:37:09;14.40;99.90
20560;DHT22;10438;51.454;6.718;2022-10-31T01:39:34;14.40;99.90
20560;DHT22;10438;51.454;6.718;2022-10-31T01:42:00;14.30;99.90
20560;DHT22;10438;51.454;6.718;2022-10-31T01:46:52;14.20;99.90
20560;DHT22;10438;51.454;6.718;2022-10-31T01:49:28;14.20;99.90
20560;DHT22;10438;51.454;6.718;2022-10-31T01:51:58;14.20;99.90
20560;DHT22;10438;51.454;6.718;2022-10-31T01:54:29;14.10;99.90
20560;DHT22;10438;51.454;6.718;2022-10-31T01:56:58;14.10;99.90
20560;DHT22;10438;51.454;6.718;2022-10-31T01:59:27;14.00;99.90
20560;DHT22;10438;51.454;6.718;2022-10-31T02:01:54;13.90;99.90
20560;DHT22;10438;51.454;6.718;2022-10-31T02:04:20;13.80;99.90
20560;DHT22;10438;51.454;6.718;2022-10-31T02:06:59;13.80;99.90
20560;DHT22;10438;51.454;6.718;2022-10-31T02:09:29;13.70;99.90
20560;DHT22;10438;51.454;6.718;2022-10-31T02:11:57;13.70;99.90
20560;DHT22;10438;51.454;6.718;2022-10-31T02:14:26;13.80;99.90
20560;DHT22;10438;51.454;6.718;2022-10-31T02:16:56;13.70;99.90
20560;DHT22;10438;51.454;6.718;2022-10-31T02:19:54;13.70;99.90
20560;DHT22;10438;51.454;6.718;2022-10-31T02:25:41;13.70;99.90
20560;DHT22;10438;51.454;6.718;2022-10-31T02:31:21;13.60;99.90
20560;DHT22;10438;51.454;6.718;2022-10-31T02:33:52;13.60;99.90
20560;DHT22;10438;51.454;6.718;2022-10-31T02:36:26;13.60;99.90
20560;DHT22;10438;51.454;6.718;2022-10-31T02:39:23;13.60;99.90
20560;DHT22;10438;51.454;6.718;2022-10-31T02:42:01;13.50;99.90
20560;DHT22;10438;51.454;6.718;2022-10-31T02:44:57;13.50;99.90
20560;DHT22;10438;51.454;6.718;2022-10-31T02:47:27;13.50;99.90
20560;DHT22;10438;51.454;6.718;2022-10-31T02:50:13;13.50;99.90
20560;DHT22;10438;51.454;6.718;2022-10-31T02:52:39;13.50;99.90
20560;DHT22;10438;51.454;6.718;2022-10-31T02:58:08;13.60;99.90
20560;DHT22;10438;51.454;6.718;2022-10-31T03:01:05;13.60;99.90
20560;DHT22;10438;51.454;6.718;2022-10-31T03:03:41;13.60;99.90
20560;DHT22;10438;51.454;6.718;2022-10-31T03:06:29;13.60;99.90
20560;DHT22;10438;51.454;6.718;2022-10-31T03:09:03;13.60;99.90
20560;DHT22;10438;51.454;6.718;2022-10-31T03:11:35;13.60;99.90
20560;DHT22;10438;51.454;6.718;2022-10-31T03:14:12;13.50;99.90
20560;DHT22;10438;51.454;6.718;2022-10-31T03:16:50;13.60;99.90
20560;DHT22;10438;51.454;6.718;2022-10-31T03:19:27;13.50;99.90
20560;DHT22;10438;51.454;6.718;2022-10-31T03:22:10;13.50;99.90
20560;DHT22;10438;51.454;6.718;2022-10-31T03:24:39;13.40;99.90
20560;DHT22;10438;51.454;6.718;2022-10-31T03:27:07;13.40;99.90
20560;DHT22;10438;51.454;6.718;2022-10-31T03:29:36;13.30;99.90
20560;DHT22;10438;51.454;6.718;2022-10-31T03:32:08;13.30;99.90
20560;DHT22;10438;51.454;6.718;2022-10-31T03:34:36;13.20;99.90
20560;DHT22;10438;51.454;6.718;2022-10-31T03:37:06;13.20;99.90
20560;DHT22;10438;51.454;6.718;2022-10-31T03:39:34;13.20;99.90
20560;DHT22;10438;51.454;6.718;2022-10-31T03:42:07;13.20;99.90
20560;DHT22;10438;51.454;6.718;2022-10-31T03:44:35;13.20;99.90
20560;DHT22;10438;51.454;6.718;2022-10-31T03:47:03;13.10;99.90
20560;DHT22;10438;51.454;6.718;2022-10-31T03:49:30;13.10;99.90
20560;DHT22;10438;51.454;6.718;2022-10-31T03:52:09;13.10;99.90
20560;DHT22;10438;51.454;6.718;2022-10-31T03:54:43;13.10;99.90
20560;DHT22;10438;51.454;6.718;2022-10-31T03:57:20;13.10;99.90
20560;DHT22;10438;51.454;6.718;2022-10-31T03:59:53;13.10;99.90
20560;DHT22;10438;51.454;6.718;2022-10-31T04:02:23;13.10;99.90
20560;DHT22;10438;51.454;6.718;2022-10-31T04:04:51;13.10;99.90
20560;DHT22;10438;51.454;6.718;2022-10-31T04:07:18;13.10;99.90
20560;DHT22;10438;51.454;6.718;2022-10-31T04:09:48;13.10;99.90
20560;DHT22;10438;51.454;6.718;2022-10-31T04:12:16;13.10;99.90
20560;DHT22;10438;51.454;6.718;2022-10-31T04:14:43;13.20;99.90
20560;DHT22;10438;51.454;6.718;2022-10-31T04:17:12;13.20;99.90
20560;DHT22;10438;51.454;6.718;2022-10-31T04:19:39;13.20;99.90
20560;DHT22;10438;51.454;6.718;2022-10-31T04:22:04;13.30;99.90
20560;DHT22;10438;51.454;6.718;2022-10-31T04:24:30;13.20;99.90
20560;DHT22;10438;51.454;6.718;2022-10-31T04:26:55;13.20;99.90
20560;DHT22;10438;51.454;6.718;2022-10-31T04:29:21;13.20;99.90
20560;DHT22;10438;51.454;6.718;2022-10-31T04:31:46;13.20;99.90
20560;DHT22;10438;51.454;6.718;2022-10-31T04:34:12;13.20;99.90
20560;DHT22;10438;51.454;6.718;2022-10-31T04:36:37;13.20;99.90
20560;DHT22;10438;51.454;6.718;2022-10-31T04:39:03;13.20;99.90
20560;DHT22;10438;51.454;6.718;2022-10-31T04:41:29;13.20;99.90
20560;DHT22;10438;51.454;6.718;2022-10-31T04:43:54;13.20;99.90
20560;DHT22;10438;51.454;6.718;2022-10-31T04:46:20;13.30;99.90
20560;DHT22;10438;51.454;6.718;2022-10-31T04:48:45;13.30;99.90
20560;DHT22;10438;51.454;6.718;2022-10-31T04:51:11;13.30;99.90
20560;DHT22;10438;51.454;6.718;2022-10-31T04:53:36;13.40;99.90
20560;DHT22;10438;51.454;6.718;2022-10-31T04:56:02;13.40;99.90
20560;DHT22;10438;51.454;6.718;2022-10-31T04:58:28;13.40;99.90
20560;DHT22;10438;51.454;6.718;2022-10-31T05:00:54;13.40;99.90
20560;DHT22;10438;51.454;6.718;2022-10-31T05:03:20;13.40;99.90
20560;DHT22;10438;51.454;6.718;2022-10-31T05:05:45;13.30;99.90
20560;DHT22;10438;51.454;6.718;2022-10-31T05:08:11;13.30;99.90
20560;DHT22;10438;51.454;6.718;2022-10-31T05:10:37;13.20;99.90
20560;DHT22;10438;51.454;6.718;2022-10-31T05:13:03;13.10;99.90
20560;DHT22;10438;51.454;6.718;2022-10-31T05:15:30;13.10;99.90
20560;DHT22;10438;51.454;6.718;2022-10-31T05:17:56;13.00;99.90
20560;DHT22;10438;51.454;6.718;2022-10-31T05:20:24;13.00;99.90
20560;DHT22;10438;51.454;6.718;2022-10-31T05:22:53;13.00;99.90
20560;DHT22;10438;51.454;6.718;2022-10-31T05:25:20;13.00;99.90
20560;DHT22;10438;51.454;6.718;2022-10-31T05:27:47;13.00;99.90
20560;DHT22;10438;51.454;6.718;2022-10-31T05:30:16;13.00;99.90
20560;DHT22;10438;51.454;6.718;2022-10-31T05:32:44;13.00;99.90
20560;DHT22;10438;51.454;6.718;2022-10-31T05:35:13;12.90;99.90
20560;DHT22;10438;51.454;6.718;2022-10-31T05:37:39;12.90;99.90
20560;DHT22;10438;51.454;6.718;2022-10-31T05:40:06;12.90;99.90
20560;DHT22;10438;51.454;6.718;2022-10-31T05:42:32;12.90;99.90
20560;DHT22;10438;51.454;6.718;2022-10-31T05:44:58;13.00;99.90
20560;DHT22;10438;51.454;6.718;2022-10-31T05:47:24;13.00;99.90
20560;DHT22;10438;51.454;6.718;2022-10-31T05:49:50;13.00;99.90
20560;DHT22;10438;51.454;6.718;2022-10-31T05:52:15;13.00;99.90
20560;DHT22;10438;51.454;6.718;2022-10-31T05:54:41;13.00;99.90
20560;DHT22;10438;51.454;6.718;2022-10-31T05:57:07;13.00;99.90
20560;DHT22;10438;51.454;6.718;2022-10-31T05:59:32;13.10;99.90
20560;DHT22;10438;51.454;6.718;2022-10-31T06:01:58;13.10;99.90
20560;DHT22;10438;51.454;6.718;2022-10-31T06:04:24;13.00;99.90
20560;DHT22;10438;51.454;6.718;2022-10-31T06:06:49;13.00;99.90
20560;DHT22;10438;51.454;6.718;2022-10-31T06:09:15;13.00;99.90
20560;DHT22;10438;51.454;6.718;2022-10-31T06:11:40;13.00;99.90
20560;DHT22;10438;51.454;6.718;2022-10-31T06:14:06;12.90;99.90
20560;DHT22;10438;51.454;6.718;2022-10-31T06:16:31;13.00;99.90
20560;DHT22;10438;51.454;6.718;2022-10-31T06:18:57;12.90;99.90
20560;DHT22;10438;51.454;6.718;2022-10-31T06:21:23;12.90;99.90
20560;DHT22;10438;51.454;6.718;2022-10-31T06:23:48;12.80;99.90
20560;DHT22;10438;51.454;6.718;2022-10-31T06:26:14;12.80;99.90
20560;DHT22;10438;51.454;6.718;2022-10-31T06:28:40;12.80;99.90
20560;DHT22;10438;51.454;6.718;2022-10-31T06:31:05;12.80;99.90
20560;DHT22;10438;51.454;6.718;2022-10-31T06:33:31;12.90;99.90
20560;DHT22;10438;51.454;6.718;2022-10-31T06:35:56;12.80;99.90
20560;DHT22;10438;51.454;6.718;2022-10-31T06:38:22;12.90;99.90
20560;DHT22;10438;51.454;6.718;2022-10-31T06:40:47;12.90;99.90
20560;DHT22;10438;51.454;6.718;2022-10-31T06:43:13;13.00;99.90
20560;DHT22;10438;51.454;6.718;2022-10-31T06:45:40;13.10;99.90
20560;DHT22;10438;51.454;6.718;2022-10-31T06:48:08;13.00;99.90
20560;DHT22;10438;51.454;6.718;2022-10-31T06:50:33;13.00;99.90
20560;DHT22;10438;51.454;6.718;2022-10-31T06:52:59;13.10;99.90
20560;DHT22;10438;51.454;6.718;2022-10-31T06:55:25;13.00;99.90
20560;DHT22;10438;51.454;6.718;2022-10-31T06:57:56;13.00;99.90
20560;DHT22;10438;51.454;6.718;2022-10-31T07:00:22;13.00;99.90
20560;DHT22;10438;51.454;6.718;2022-10-31T07:03:06;13.00;99.90
20560;DHT22;10438;51.454;6.718;2022-10-31T07:05:32;13.00;99.90
20560;DHT22;10438;51.454;6.718;2022-10-31T07:08:00;13.00;99.90
20560;DHT22;10438;51.454;6.718;2022-10-31T07:10:27;13.00;99.90
20560;DHT22;10438;51.454;6.718;2022-10-31T07:12:57;13.10;99.90
20560;DHT22;10438;51.454;6.718;2022-10-31T07:15:24;13.00;99.90
20560;DHT22;10438;51.454;6.718;2022-10-31T07:17:50;13.00;99.90
20560;DHT22;10438;51.454;6.718;2022-10-31T07:20:16;13.00;99.90
20560;DHT22;10438;51.454;6.718;2022-10-31T07:22:41;13.00;99.90
20560;DHT22;10438;51.454;6.718;2022-10-31T07:25:07;13.00;99.90
20560;DHT22;10438;51.454;6.718;2022-10-31T07:27:40;13.00;99.90
20560;DHT22;10438;51.454;6.718;2022-10-31T07:30:07;13.00;99.90
20560;DHT22;10438;51.454;6.718;2022-10-31T07:32:44;13.00;99.90
20560;DHT22;10438;51.454;6.718;2022-10-31T07:35:12;13.10;99.90
20560;DHT22;10438;51.454;6.718;2022-10-31T07:37:38;13.10;99.90
20560;DHT22;10438;51.454;6.718;2022-10-31T07:40:06;13.20;99.90
20560;DHT22;10438;51.454;6.718;2022-10-31T07:42:39;13.20;99.90
20560;DHT22;10438;51.454;6.718;2022-10-31T07:45:07;13.20;99.90
20560;DHT22;10438;51.454;6.718;2022-10-31T07:47:44;13.20;99.90
20560;DHT22;10438;51.454;6.718;2022-10-31T07:50:21;13.30;99.90
20560;DHT22;10438;51.454;6.718;2022-10-31T07:52:47;13.30;99.90
20560;DHT22;10438;51.454;6.718;2022-10-31T07:55:13;13.40;99.90
20560;DHT22;10438;51.454;6.718;2022-10-31T07:57:39;13.40;99.90
20560;DHT22;10438;51.454;6.718;2022-10-31T08:00:09;13.40;99.90
20560;DHT22;10438;51.454;6.718;2022-10-31T08:02:35;13.50;99.90
20560;DHT22;10438;51.454;6.718;2022-10-31T08:05:00;13.50;99.90
20560;DHT22;10438;51.454;6.718;2022-10-31T08:07:28;13.60;99.90
20560;DHT22;10438;51.454;6.718;2022-10-31T08:09:54;13.60;99.90
20560;DHT22;10438;51.454;6.718;2022-10-31T08:12:20;13.60;99.90
20560;DHT22;10438;51.454;6.718;2022-10-31T08:14:45;13.60;99.90
20560;DHT22;10438;51.454;6.718;2022-10-31T08:17:11;13.60;99.90
20560;DHT22;10438;51.454;6.718;2022-10-31T08:19:37;13.60;99.90
20560;DHT22;10438;51.454;6.718;2022-10-31T08:22:02;13.70;99.90
20560;DHT22;10438;51.454;6.718;2022-10-31T08:24:28;13.70;99.90
20560;DHT22;10438;51.454;6.718;2022-10-31T08:26:53;13.80;99.90
20560;DHT22;10438;51.454;6.718;2022-10-31T08:29:19;13.80;99.90
20560;DHT22;10438;51.454;6.718;2022-10-31T08:31:44;13.90;99.90
20560;DHT22;10438;51.454;6.718;2022-10-31T08:34:10;13.90;99.90
20560;DHT22;10438;51.454;6.718;2022-10-31T08:36:35;14.00;99.90
20560;DHT22;10438;51.454;6.718;2022-10-31T08:39:02;14.00;99.90
20560;DHT22;10438;51.454;6.718;2022-10-31T08:41:28;14.10;99.90
20560;DHT22;10438;51.454;6.718;2022-10-31T08:43:53;14.10;99.90
20560;DHT22;10438;51.454;6.718;2022-10-31T08:46:19;14.20;99.90
20560;DHT22;10438;51.454;6.718;2022-10-31T08:48:46;14.20;99.90
20560;DHT22;10438;51.454;6.718;2022-10-31T08:51:12;14.30;99.90
20560;DHT22;10438;51.454;6.718;2022-10-31T08:53:37;14.40;99.90
20560;DHT22;10438;51.454;6.718;2022-10-31T08:56:03;14.40;99.90
20560;DHT22;10438;51.454;6.718;2022-10-31T08:58:29;14.50;99.90
20560;DHT22;10438;51.454;6.718;2022-10-31T09:00:55;14.50;99.90
20560;DHT22;10438;51.454;6.718;2022-10-31T09:03:22;14.60;99.90
20560;DHT22;10438;51.454;6.718;2022-10-31T09:05:49;14.60;99.90
20560;DHT22;10438;51.454;6.718;2022-10-31T09:08:15;14.70;99.90
20560;DHT22;10438;51.454;6.718;2022-10-31T09:10:41;14.70;99.90
20560;DHT22;10438;51.454;6.718;2022-10-31T09:13:10;14.80;99.90
20560;DHT22;10438;51.454;6.718;2022-10-31T09:15:40;14.80;99.90
20560;DHT22;10438;51.454;6.718;2022-10-31T09:18:06;14.80;99.90
20560;DHT22;10438;51.454;6.718;2022-10-31T09:20:34;14.90;99.90
20560;DHT22;10438;51.454;6.718;2022-10-31T09:23:02;15.00;99.90
20560;DHT22;10438;51.454;6.718;2022-10-31T09:25:28;15.00;99.90
20560;DHT22;10438;51.454;6.718;2022-10-31T09:27:58;15.10;99.90
20560;DHT22;10438;51.454;6.718;2022-10-31T09:30:28;15.20;99.90
20560;DHT22;10438;51.454;6.718;2022-10-31T09:32:59;15.30;99.90
20560;DHT22;10438;51.454;6.718;2022-10-31T09:35:25;15.30;99.90
20560;DHT22;10438;51.454;6.718;2022-10-31T09:37:58;15.40;99.90
20560;DHT22;10438;51.454;6.718;2022-10-31T09:43:56;15.50;99.90
20560;DHT22;10438;51.454;6.718;2022-10-31T09:49:34;15.60;99.90
20560;DHT22;10438;51.454;6.718;2022-10-31T09:52:18;15.60;99.90
20560;DHT22;10438;51.454;6.718;2022-10-31T09:54:49;15.60;99.90
20560;DHT22;10438;51.454;6.718;2022-10-31T09:57:23;15.60;99.90
20560;DHT22;10438;51.454;6.718;2022-10-31T09:59:50;15.70;99.90
20560;DHT22;10438;51.454;6.718;2022-10-31T10:02:38;15.70;99.90
20560;DHT22;10438;51.454;6.718;2022-10-31T10:05:09;15.80;99.90
20560;DHT22;10438;51.454;6.718;2022-10-31T10:07:44;15.90;99.90
20560;DHT22;10438;51.454;6.718;2022-10-31T10:10:32;16.10;99.90
20560;DHT22;10438;51.454;6.718;2022-10-31T10:15:58;16.30;99.90
20560;DHT22;10438;51.454;6.718;2022-10-31T10:18:38;16.60;99.90
20560;DHT22;10438;51.454;6.718;2022-10-31T10:21:35;16.80;99.90
20560;DHT22;10438;51.454;6.718;2022-10-31T10:26:37;17.00;99.90
20560;DHT22;10438;51.454;6.718;2022-10-31T10:29:31;16.90;99.90
20560;DHT22;10438;51.454;6.718;2022-10-31T10:32:01;16.80;99.90
20560;DHT22;10438;51.454;6.718;2022-10-31T10:34:36;16.80;99.90
20560;DHT22;10438;51.454;6.718;2022-10-31T10:37:05;16.70;99.90
20560;DHT22;10438;51.454;6.718;2022-10-31T10:39:44;16.90;99.90
20560;DHT22;10438;51.454;6.718;2022-10-31T10:42:14;17.00;99.90
20560;DHT22;10438;51.454;6.718;2022-10-31T10:45:00;17.00;99.90
20560;DHT22;10438;51.454;6.718;2022-10-31T10:47:56;17.10;99.90
20560;DHT22;10438;51.454;6.718;2022-10-31T10:50:36;17.10;99.90
20560;DHT22;10438;51.454;6.718;2022-10-31T10:53:18;17.20;99.90
20560;DHT22;10438;51.454;6.718;2022-10-31T10:56:15;17.20;99.90
20560;DHT22;10438;51.454;6.718;2022-10-31T10:58:42;17.50;99.90
20560;DHT22;10438;51.454;6.718;2022-10-31T11:01:15;17.80;99.90
20560;DHT22;10438;51.454;6.718;2022-10-31T11:03:41;18.10;99.90
20560;DHT22;10438;51.454;6.718;2022-10-31T11:06:20;18.20;99.90
20560;DHT22;10438;51.454;6.718;2022-10-31T11:08:50;18.00;99.90
20560;DHT22;10438;51.454;6.718;2022-10-31T11:13:43;17.90;99.90
20560;DHT22;10438;51.454;6.718;2022-10-31T11:16:32;17.80;99.90
20560;DHT22;10438;51.454;6.718;2022-10-31T11:21:40;17.90;99.90
20560;DHT22;10438;51.454;6.718;2022-10-31T11:26:34;18.10;99.90
20560;DHT22;10438;51.454;6.718;2022-10-31T11:29:00;18.20;99.90
20560;DHT22;10438;51.454;6.718;2022-10-31T11:31:28;18.30;99.90
20560;DHT22;10438;51.454;6.718;2022-10-31T11:34:05;18.30;99.90
20560;DHT22;10438;51.454;6.718;2022-10-31T11:36:37;18.40;99.90
20560;DHT22;10438;51.454;6.718;2022-10-31T11:39:05;18.40;99.90
20560;DHT22;10438;51.454;6.718;2022-10-31T11:41:38;18.50;99.90
20560;DHT22;10438;51.454;6.718;2022-10-31T11:44:04;18.40;99.90
20560;DHT22;10438;51.454;6.718;2022-10-31T11:46:34;18.40;99.90
20560;DHT22;10438;51.454;6.718;2022-10-31T11:49:01;18.40;99.90
20560;DHT22;10438;51.454;6.718;2022-10-31T11:51:31;18.30;99.90
20560;DHT22;10438;51.454;6.718;2022-10-31T11:53:58;18.30;99.90
20560;DHT22;10438;51.454;6.718;2022-10-31T11:56:24;18.40;99.90
20560;DHT22;10438;51.454;6.718;2022-10-31T11:59:03;18.50;99.90
20560;DHT22;10438;51.454;6.718;2022-10-31T12:01:31;18.60;99.90
20560;DHT22;10438;51.454;6.718;2022-10-31T12:04:07;18.50;99.90
20560;DHT22;10438;51.454;6.718;2022-10-31T12:06:41;18.60;99.90
20560;DHT22;10438;51.454;6.718;2022-10-31T12:14:39;18.70;99.90
20560;DHT22;10438;51.454;6.718;2022-10-31T12:17:16;18.70;99.90
20560;DHT22;10438;51.454;6.718;2022-10-31T12:20:03;18.80;99.90
20560;DHT22;10438;51.454;6.718;2022-10-31T12:22:58;18.80;99.90
20560;DHT22;10438;51.454;6.718;2022-10-31T12:25:45;18.90;99.90
20560;DHT22;10438;51.454;6.718;2022-10-31T12:28:36;18.90;99.90
20560;DHT22;10438;51.454;6.718;2022-10-31T12:31:21;19.00;99.90
20560;DHT22;10438;51.454;6.718;2022-10-31T12:34:15;19.10;99.90
20560;DHT22;10438;51.454;6.718;2022-10-31T12:39:23;19.20;99.90
20560;DHT22;10438;51.454;6.718;2022-10-31T12:42:13;19.20;99.90
20560;DHT22;10438;51.454;6.718;2022-10-31T12:45:06;19.30;99.90
20560;DHT22;10438;51.454;6.718;2022-10-31T12:47:58;19.50;99.90
20560;DHT22;10438;51.454;6.718;2022-10-31T12:50:28;19.70;99.90
20560;DHT22;10438;51.454;6.718;2022-10-31T12:53:19;19.80;99.90
20560;DHT22;10438;51.454;6.718;2022-10-31T12:56:18;20.00;99.90
20560;DHT22;10438;51.454;6.718;2022-10-31T12:58:52;20.10;99.90
20560;DHT22;10438;51.454;6.718;2022-10-31T13:01:21;20.30;99.90
20560;DHT22;10438;51.454;6.718;2022-10-31T13:06:20;20.60;99.90
20560;DHT22;10438;51.454;6.718;2022-10-31T13:08:57;20.40;99.90
20560;DHT22;10438;51.454;6.718;2022-10-31T13:11:43;20.40;99.90
20560;DHT22;10438;51.454;6.718;2022-10-31T13:14:32;20.50;99.90
20560;DHT22;10438;51.454;6.718;2022-10-31T13:17:00;20.70;99.90
20560;DHT22;10438;51.454;6.718;2022-10-31T13:19:39;20.80;99.90
20560;DHT22;10438;51.454;6.718;2022-10-31T13:22:14;20.70;99.90
20560;DHT22;10438;51.454;6.718;2022-10-31T13:28:12;20.30;99.90
20560;DHT22;10438;51.454;6.718;2022-10-31T13:30:39;20.10;99.90
20560;DHT22;10438;51.454;6.718;2022-10-31T13:33:19;20.00;99.90
20560;DHT22;10438;51.454;6.718;2022-10-31T13:35:55;20.00;99.90
20560;DHT22;10438;51.454;6.718;2022-10-31T13:44:12;20.20;99.90
20560;DHT22;10438;51.454;6.718;2022-10-31T13:46:40;20.30;99.90
20560;DHT22;10438;51.454;6.718;2022-10-31T13:54:37;20.20;99.90
20560;DHT22;10438;51.454;6.718;2022-10-31T13:57:13;20.20;99.90
20560;DHT22;10438;51.454;6.718;2022-10-31T13:59:53;20.20;99.90
20560;DHT22;10438;51.454;6.718;2022-10-31T14:02:31;20.20;99.90
20560;DHT22;10438;51.454;6.718;2022-10-31T14:05:04;20.20;99.90
20560;DHT22;10438;51.454;6.718;2022-10-31T14:07:31;20.20;99.90
20560;DHT22;10438;51.454;6.718;2022-10-31T14:10:02;20.10;99.90
20560;DHT22;10438;51.454;6.718;2022-10-31T14:12:44;20.10;99.90
20560;DHT22;10438;51.454;6.718;2022-10-31T14:15:21;20.10;99.90
20560;DHT22;10438;51.454;6.718;2022-10-31T14:17:56;20.10;99.90
20560;DHT22;10438;51.454;6.718;2022-10-31T14:22:50;20.10;99.90
20560;DHT22;10438;51.454;6.718;2022-10-31T14:25:34;20.00;99.90
20560;DHT22;10438;51.454;6.718;2022-10-31T14:28:20;20.10;99.90
20560;DHT22;10438;51.454;6.718;2022-10-31T14:30:56;20.00;99.90
20560;DHT22;10438;51.454;6.718;2022-10-31T14:33:24;20.00;99.90
20560;DHT22;10438;51.454;6.718;2022-10-31T14:36:03;20.00;99.90
20560;DHT22;10438;51.454;6.718;2022-10-31T14:41:25;20.00;99.90
20560;DHT22;10438;51.454;6.718;2022-10-31T14:44:15;19.90;99.90
20560;DHT22;10438;51.454;6.718;2022-10-31T14:46:54;19.90;99.90
20560;DHT22;10438;51.454;6.718;2022-10-31T14:51:59;19.90;99.90
20560;DHT22;10438;51.454;6.718;2022-10-31T14:54:39;19.80;99.90
20560;DHT22;10438;51.454;6.718;2022-10-31T14:57:16;19.80;99.90
20560;DHT22;10438;51.454;6.718;2022-10-31T14:59:47;19.70;99.90
20560;DHT22;10438;51.454;6.718;2022-10-31T15:02:19;19.70;99.90
20560;DHT22;10438;51.454;6.718;2022-10-31T15:04:47;19.60;99.90
20560;DHT22;10438;51.454;6.718;2022-10-31T15:07:22;19.60;99.90
20560;DHT22;10438;51.454;6.718;2022-10-31T15:12:43;19.60;99.90
20560;DHT22;10438;51.454;6.718;2022-10-31T15:15:13;19.60;99.90
20560;DHT22;10438;51.454;6.718;2022-10-31T15:17:44;19.50;99.90
20560;DHT22;10438;51.454;6.718;2022-10-31T15:20:20;19.40;99.90
20560;DHT22;10438;51.454;6.718;2022-10-31T15:22:47;19.40;99.90
20560;DHT22;10438;51.454;6.718;2022-10-31T15:25:18;19.30;99.90
20560;DHT22;10438;51.454;6.718;2022-10-31T15:27:46;19.30;99.90
20560;DHT22;10438;51.454;6.718;2022-10-31T15:32:44;19.30;99.90
20560;DHT22;10438;51.454;6.718;2022-10-31T15:35:10;19.30;99.90
20560;DHT22;10438;51.454;6.718;2022-10-31T15:37:36;19.20;99.90
20560;DHT22;10438;51.454;6.718;2022-10-31T15:40:15;19.20;99.90
20560;DHT22;10438;51.454;6.718;2022-10-31T15:42:41;19.10;99.90
20560;DHT22;10438;51.454;6.718;2022-10-31T15:47:39;19.00;99.90
20560;DHT22;10438;51.454;6.718;2022-10-31T15:52:53;18.80;99.90
20560;DHT22;10438;51.454;6.718;2022-10-31T15:55:24;18.70;99.90
20560;DHT22;10438;51.454;6.718;2022-10-31T15:58:17;18.80;99.90
20560;DHT22;10438;51.454;6.718;2022-10-31T16:00:43;18.70;99.90
20560;DHT22;10438;51.454;6.718;2022-10-31T16:08:33;18.60;99.90
20560;DHT22;10438;51.454;6.718;2022-10-31T16:13:33;18.60;99.90
20560;DHT22;10438;51.454;6.718;2022-10-31T16:16:03;18.50;99.90
20560;DHT22;10438;51.454;6.718;2022-10-31T16:18:36;18.50;99.90
20560;DHT22;10438;51.454;6.718;2022-10-31T16:21:02;18.40;99.90
20560;DHT22;10438;51.454;6.718;2022-10-31T16:23:28;18.40;99.90
20560;DHT22;10438;51.454;6.718;2022-10-31T16:25:54;18.30;99.90
20560;DHT22;10438;51.454;6.718;2022-10-31T16:28:25;18.30;99.90
20560;DHT22;10438;51.454;6.718;2022-10-31T16:30:52;18.20;99.90
20560;DHT22;10438;51.454;6.718;2022-10-31T16:35:49;18.10;99.90
20560;DHT22;10438;51.454;6.718;2022-10-31T16:38:14;18.00;99.90
20560;DHT22;10438;51.454;6.718;2022-10-31T16:40:40;17.90;99.90
20560;DHT22;10438;51.454;6.718;2022-10-31T16:43:14;17.80;99.90
20560;DHT22;10438;51.454;6.718;2022-10-31T16:45:51;17.70;99.90
20560;DHT22;10438;51.454;6.718;2022-10-31T16:48:19;17.60;99.90
20560;DHT22;10438;51.454;6.718;2022-10-31T16:50:47;17.60;99.90
20560;DHT22;10438;51.454;6.718;2022-10-31T16:53:13;17.40;99.90
20560;DHT22;10438;51.454;6.718;2022-10-31T16:55:46;17.30;99.90
20560;DHT22;10438;51.454;6.718;2022-10-31T16:58:21;17.20;99.90
20560;DHT22;10438;51.454;6.718;2022-10-31T17:00:48;17.10;99.90
20560;DHT22;10438;51.454;6.718;2022-10-31T17:03:13;17.00;99.90
20560;DHT22;10438;51.454;6.718;2022-10-31T17:05:39;16.90;99.90
20560;DHT22;10438;51.454;6.718;2022-10-31T17:08:04;16.80;99.90
20560;DHT22;10438;51.454;6.718;2022-10-31T17:10:30;16.80;99.90
20560;DHT22;10438;51.454;6.718;2022-10-31T17:12:56;16.80;99.90
20560;DHT22;10438;51.454;6.718;2022-10-31T17:15:24;16.70;99.90
20560;DHT22;10438;51.454;6.718;2022-10-31T17:17:51;16.70;99.90